sensor_id;sensor_type;location;lat;lon;timestamp;pressure;altitude;pressure_sealevel;temperature;humidity
56600;BME280;51832;48.152;11.530;2023-03-16T00:01:46;95836.94;;;7.69;64.43
56600;BME280;51832;48.152;11.530;2023-03-16T00:06:47;95823.53;;;7.44;65.07
56600;BME280;51832;48.152;11.530;2023-03-16T00:11:47;95818.91;;;7.46;64.76
56600;BME280;51832;48.152;11.530;2023-03-16T00:16:47;95830.38;;;7.45;64.15
56600;BME280;51832;48.152;11.530;2023-03-16T00:21:49;95817.06;;;7.40;64.91
56600;BME280;51832;48.152;11.530;2023-03-16T00:26:50;95825.38;;;7.16;65.09
56600;BME280;51832;48.152;11.530;2023-03-16T00:31:53;95833.03;;;6.89;66.21
56600;BME280;51832;48.152;11.530;2023-03-16T00:36:54;95822.44;;;6.76;66.67
56600;BME280;51832;48.152;11.530;2023-03-16T00:41:54;95812.44;;;6.80;67.00
56600;BME280;51832;48.152;11.530;2023-03-16T00:46:57;95822.81;;;6.94;66.59
56600;BME280;51832;48.152;11.530;2023-03-16T00:51:57;95819.84;;;7.04;65.92
56600;BME280;51832;48.152;11.530;2023-03-16T00:56:59;95825.09;;;7.04;65.36
56600;BME280;51832;48.152;11.530;2023-03-16T01:02:00;95822.84;;;7.01;65.80
56600;BME280;51832;48.152;11.530;2023-03-16T01:07:03;95817.88;;;7.12;63.67
56600;BME280;51832;48.152;11.530;2023-03-16T01:12:09;95812.38;;;7.01;64.91
56600;BME280;51832;48.152;11.530;2023-03-16T01:17:11;95822.03;;;7.00;64.67
56600;BME280;51832;48.152;11.530;2023-03-16T01:22:14;95812.00;;;7.04;64.47
56600;BME280;51832;48.152;11.530;2023-03-16T01:27:14;95811.94;;;6.97;64.69
56600;BME280;51832;48.152;11.530;2023-03-16T01:32:14;95819.59;;;6.99;64.47
56600;BME280;51832;48.152;11.530;2023-03-16T01:37:15;95807.16;;;7.01;64.85
56600;BME280;51832;48.152;11.530;2023-03-16T01:42:15;95808.13;;;7.00;63.78
56600;BME280;51832;48.152;11.530;2023-03-16T01:47:16;95801.91;;;7.01;63.33
56600;BME280;51832;48.152;11.530;2023-03-16T01:52:21;95795.03;;;6.93;63.88
56600;BME280;51832;48.152;11.530;2023-03-16T01:57:27;95793.50;;;7.05;63.19
56600;BME280;51832;48.152;11.530;2023-03-16T02:02:30;95792.63;;;6.70;64.21
56600;BME280;51832;48.152;11.530;2023-03-16T02:07:38;95791.59;;;6.65;65.02
56600;BME280;51832;48.152;11.530;2023-03-16T02:12:42;95791.97;;;6.62;65.06
56600;BME280;51832;48.152;11.530;2023-03-16T02:17:44;95789.72;;;6.59;64.82
56600;BME280;51832;48.152;11.530;2023-03-16T02:22:48;95802.56;;;6.54;65.13
56600;BME280;51832;48.152;11.530;2023-03-16T02:33:03;95796.28;;;6.76;64.54
56600;BME280;51832;48.152;11.530;2023-03-16T02:38:04;95797.66;;;6.93;62.69
56600;BME280;51832;48.152;11.530;2023-03-16T02:48:11;95788.19;;;6.71;63.67
56600;BME280;51832;48.152;11.530;2023-03-16T02:53:15;95793.06;;;6.74;63.85
56600;BME280;51832;48.152;11.530;2023-03-16T02:58:16;95787.03;;;6.73;64.15
56600;BME280;51832;48.152;11.530;2023-03-16T03:03:16;95784.03;;;6.27;65.89
56600;BME280;51832;48.152;11.530;2023-03-16T03:08:17;95785.47;;;6.15;65.75
56600;BME280;51832;48.152;11.530;2023-03-16T03:13:21;95791.41;;;6.24;66.24
56600;BME280;51832;48.152;11.530;2023-03-16T03:18:23;95781.19;;;6.07;66.60
56600;BME280;51832;48.152;11.530;2023-03-16T03:23:24;95779.66;;;6.13;66.61
56600;BME280;51832;48.152;11.530;2023-03-16T03:28:25;95780.38;;;6.07;67.81
56600;BME280;51832;48.152;11.530;2023-03-16T03:33:26;95789.16;;;5.99;67.94
56600;BME280;51832;48.152;11.530;2023-03-16T03:38:27;95785.56;;;5.86;68.17
56600;BME280;51832;48.152;11.530;2023-03-16T03:43:27;95782.25;;;5.77;68.50
56600;BME280;51832;48.152;11.530;2023-03-16T03:48:28;95779.13;;;5.67;69.01
56600;BME280;51832;48.152;11.530;2023-03-16T03:53:29;95772.59;;;5.78;68.43
56600;BME280;51832;48.152;11.530;2023-03-16T03:58:29;95778.28;;;5.96;68.08
56600;BME280;51832;48.152;11.530;2023-03-16T04:03:29;95772.25;;;5.81;68.15
56600;BME280;51832;48.152;11.530;2023-03-16T04:08:30;95768.00;;;5.94;67.76
56600;BME280;51832;48.152;11.530;2023-03-16T04:13:30;95767.88;;;6.02;66.49
56600;BME280;51832;48.152;11.530;2023-03-16T04:18:31;95769.06;;;6.00;66.50
56600;BME280;51832;48.152;11.530;2023-03-16T04:23:37;95777.84;;;6.14;66.20
56600;BME280;51832;48.152;11.530;2023-03-16T04:28:38;95782.75;;;6.23;65.73
56600;BME280;51832;48.152;11.530;2023-03-16T04:33:39;95781.94;;;6.01;66.26
56600;BME280;51832;48.152;11.530;2023-03-16T04:38:41;95787.53;;;5.98;65.60
56600;BME280;51832;48.152;11.530;2023-03-16T04:43:42;95778.59;;;6.29;65.68
56600;BME280;51832;48.152;11.530;2023-03-16T04:48:43;95765.66;;;8.67;78.06
56600;BME280;51832;48.152;11.530;2023-03-16T04:53:43;95758.50;;;10.36;67.50
56600;BME280;51832;48.152;11.530;2023-03-16T04:58:45;95763.19;;;11.27;61.33
56600;BME280;51832;48.152;11.530;2023-03-16T05:03:46;95752.75;;;11.38;50.30
56600;BME280;51832;48.152;11.530;2023-03-16T05:08:46;95745.63;;;9.77;51.87
56600;BME280;51832;48.152;11.530;2023-03-16T05:13:47;95734.78;;;8.56;56.33
56600;BME280;51832;48.152;11.530;2023-03-16T05:18:47;95737.63;;;7.67;58.41
56600;BME280;51832;48.152;11.530;2023-03-16T05:23:47;95738.75;;;7.45;60.43
56600;BME280;51832;48.152;11.530;2023-03-16T05:28:48;95739.47;;;7.26;59.58
56600;BME280;51832;48.152;11.530;2023-03-16T05:33:48;95735.78;;;7.13;61.55
56600;BME280;51832;48.152;11.530;2023-03-16T05:38:49;95741.63;;;7.16;62.29
56600;BME280;51832;48.152;11.530;2023-03-16T05:43:49;95745.63;;;6.77;63.60
56600;BME280;51832;48.152;11.530;2023-03-16T05:48:50;95736.50;;;6.66;63.68
56600;BME280;51832;48.152;11.530;2023-03-16T05:53:52;95741.91;;;6.65;64.20
56600;BME280;51832;48.152;11.530;2023-03-16T05:58:55;95744.34;;;6.66;63.54
56600;BME280;51832;48.152;11.530;2023-03-16T06:03:56;95741.34;;;6.69;64.35
56600;BME280;51832;48.152;11.530;2023-03-16T06:08:56;95733.19;;;6.86;62.95
56600;BME280;51832;48.152;11.530;2023-03-16T06:13:58;95737.31;;;6.67;63.71
56600;BME280;51832;48.152;11.530;2023-03-16T06:18:59;95748.47;;;6.82;62.57
56600;BME280;51832;48.152;11.530;2023-03-16T06:24:00;95748.84;;;7.07;62.22
56600;BME280;51832;48.152;11.530;2023-03-16T06:29:03;95747.84;;;7.08;62.64
56600;BME280;51832;48.152;11.530;2023-03-16T06:34:03;95761.19;;;7.26;61.90
56600;BME280;51832;48.152;11.530;2023-03-16T06:39:04;95752.06;;;7.09;62.54
56600;BME280;51832;48.152;11.530;2023-03-16T06:44:05;95753.94;;;7.63;60.50
56600;BME280;51832;48.152;11.530;2023-03-16T06:49:05;95744.66;;;6.85;62.07
56600;BME280;51832;48.152;11.530;2023-03-16T06:54:06;95750.72;;;7.20;61.17
56600;BME280;51832;48.152;11.530;2023-03-16T06:59:07;95749.59;;;7.35;60.43
56600;BME280;51832;48.152;11.530;2023-03-16T07:04:07;95746.69;;;6.61;62.12
56600;BME280;51832;48.152;11.530;2023-03-16T07:09:08;95752.28;;;6.80;61.94
56600;BME280;51832;48.152;11.530;2023-03-16T07:14:08;95738.03;;;6.89;62.60
56600;BME280;51832;48.152;11.530;2023-03-16T07:19:09;95744.34;;;7.35;61.35
56600;BME280;51832;48.152;11.530;2023-03-16T07:24:10;95749.47;;;7.16;61.67
56600;BME280;51832;48.152;11.530;2023-03-16T07:29:12;95751.22;;;7.36;61.49
56600;BME280;51832;48.152;11.530;2023-03-16T07:34:13;95748.41;;;7.38;60.68
56600;BME280;51832;48.152;11.530;2023-03-16T07:39:14;95747.66;;;7.51;61.84
56600;BME280;51832;48.152;11.530;2023-03-16T07:44:16;95766.09;;;7.36;59.66
56600;BME280;51832;48.152;11.530;2023-03-16T07:49:17;95755.34;;;6.90;62.30
56600;BME280;51832;48.152;11.530;2023-03-16T07:54:17;95772.19;;;6.81;63.55
56600;BME280;51832;48.152;11.530;2023-03-16T07:59:18;95771.03;;;7.18;62.54
56600;BME280;51832;48.152;11.530;2023-03-16T08:04:20;95781.25;;;7.12;62.21
56600;BME280;51832;48.152;11.530;2023-03-16T08:09:21;95774.97;;;7.41;62.13
56600;BME280;51832;48.152;11.530;2023-03-16T08:14:21;95786.66;;;7.87;60.75
56600;BME280;51832;48.152;11.530;2023-03-16T08:19:22;95785.44;;;7.82;60.17
56600;BME280;51832;48.152;11.530;2023-03-16T08:24:24;95792.47;;;8.43;57.82
56600;BME280;51832;48.152;11.530;2023-03-16T08:29:25;95792.88;;;8.33;58.31
56600;BME280;51832;48.152;11.530;2023-03-16T08:34:26;95787.09;;;7.97;59.33
56600;BME280;51832;48.152;11.530;2023-03-16T08:39:26;95792.53;;;7.95;58.86
56600;BME280;51832;48.152;11.530;2023-03-16T08:44:28;95786.56;;;8.28;59.02
56600;BME280;51832;48.152;11.530;2023-03-16T08:49:28;95788.47;;;8.86;56.91
56600;BME280;51832;48.152;11.530;2023-03-16T08:54:29;95784.25;;;8.85;56.95
56600;BME280;51832;48.152;11.530;2023-03-16T08:59:31;95782.75;;;9.42;55.56
56600;BME280;51832;48.152;11.530;2023-03-16T09:04:31;95768.41;;;9.89;53.70
56600;BME280;51832;48.152;11.530;2023-03-16T09:09:32;95784.47;;;9.68;53.90
56600;BME280;51832;48.152;11.530;2023-03-16T09:14:33;95763.88;;;9.58;53.43
56600;BME280;51832;48.152;11.530;2023-03-16T09:19:36;95778.66;;;9.53;54.21
56600;BME280;51832;48.152;11.530;2023-03-16T09:24:36;95776.84;;;9.98;52.63
56600;BME280;51832;48.152;11.530;2023-03-16T09:29:37;95781.63;;;10.52;51.57
56600;BME280;51832;48.152;11.530;2023-03-16T09:34:38;95778.66;;;10.04;52.35
56600;BME280;51832;48.152;11.530;2023-03-16T09:39:38;95774.94;;;10.25;52.10
56600;BME280;51832;48.152;11.530;2023-03-16T09:49:57;95780.59;;;9.13;54.40
56600;BME280;51832;48.152;11.530;2023-03-16T09:55:06;95774.06;;;9.42;53.64
56600;BME280;51832;48.152;11.530;2023-03-16T10:00:16;95775.19;;;9.59;53.16
56600;BME280;51832;48.152;11.530;2023-03-16T10:05:22;95767.47;;;9.77;52.83
56600;BME280;51832;48.152;11.530;2023-03-16T10:15:39;95768.63;;;9.30;53.53
56600;BME280;51832;48.152;11.530;2023-03-16T10:20:40;95772.19;;;10.00;52.69
56600;BME280;51832;48.152;11.530;2023-03-16T10:25:47;95760.31;;;9.97;52.09
56600;BME280;51832;48.152;11.530;2023-03-16T10:30:51;95744.13;;;10.39;50.09
56600;BME280;51832;48.152;11.530;2023-03-16T10:36:33;95746.66;;;10.77;49.54
56600;BME280;51832;48.152;11.530;2023-03-16T10:41:43;95740.97;;;10.17;50.59
56600;BME280;51832;48.152;11.530;2023-03-16T10:46:47;95732.91;;;11.18;48.89
56600;BME280;51832;48.152;11.530;2023-03-16T10:51:48;95729.72;;;11.09;49.23
56600;BME280;51832;48.152;11.530;2023-03-16T10:56:48;95729.84;;;11.39;49.11
56600;BME280;51832;48.152;11.530;2023-03-16T11:01:49;95732.25;;;10.79;50.97
56600;BME280;51832;48.152;11.530;2023-03-16T11:06:55;95711.75;;;11.06;50.57
56600;BME280;51832;48.152;11.530;2023-03-16T11:11:56;95706.31;;;11.74;48.31
56600;BME280;51832;48.152;11.530;2023-03-16T11:17:08;95701.78;;;11.81;47.68
56600;BME280;51832;48.152;11.530;2023-03-16T11:22:15;95707.22;;;12.16;47.55
56600;BME280;51832;48.152;11.530;2023-03-16T11:27:23;95698.47;;;12.57;46.31
56600;BME280;51832;48.152;11.530;2023-03-16T11:32:29;95701.06;;;12.04;47.13
56600;BME280;51832;48.152;11.530;2023-03-16T11:37:53;95694.94;;;11.92;46.92
56600;BME280;51832;48.152;11.530;2023-03-16T12:14:22;95628.25;;;13.71;41.93
56600;BME280;51832;48.152;11.530;2023-03-16T12:24:42;95619.09;;;13.22;42.48
56600;BME280;51832;48.152;11.530;2023-03-16T12:35:05;95616.75;;;14.78;39.30
56600;BME280;51832;48.152;11.530;2023-03-16T12:40:30;95620.03;;;15.23;38.63
56600;BME280;51832;48.152;11.530;2023-03-16T12:45:43;95609.13;;;14.43;37.50
56600;BME280;51832;48.152;11.530;2023-03-16T12:50:52;95604.63;;;15.20;37.29
56600;BME280;51832;48.152;11.530;2023-03-16T12:55:55;95606.78;;;15.23;36.18
56600;BME280;51832;48.152;11.530;2023-03-16T13:00:58;95593.47;;;15.40;36.42
56600;BME280;51832;48.152;11.530;2023-03-16T13:05:59;95596.50;;;16.03;35.84
56600;BME280;51832;48.152;11.530;2023-03-16T13:11:06;95588.91;;;15.84;35.57
56600;BME280;51832;48.152;11.530;2023-03-16T13:16:22;95589.09;;;15.29;35.86
56600;BME280;51832;48.152;11.530;2023-03-16T13:21:37;95585.66;;;16.36;32.83
56600;BME280;51832;48.152;11.530;2023-03-16T13:26:41;95573.28;;;16.57;31.50
56600;BME280;51832;48.152;11.530;2023-03-16T13:31:44;95581.19;;;15.12;33.69
56600;BME280;51832;48.152;11.530;2023-03-16T13:36:45;95576.50;;;16.22;32.43
56600;BME280;51832;48.152;11.530;2023-03-16T13:41:54;95577.53;;;16.95;31.25
56600;BME280;51832;48.152;11.530;2023-03-16T13:47:01;95569.84;;;16.56;30.55
56600;BME280;51832;48.152;11.530;2023-03-16T13:52:02;95557.78;;;16.76;31.36
56600;BME280;51832;48.152;11.530;2023-03-16T13:57:03;95550.16;;;17.77;28.20
56600;BME280;51832;48.152;11.530;2023-03-16T14:02:10;95545.28;;;17.44;28.49
56600;BME280;51832;48.152;11.530;2023-03-16T14:07:18;95546.06;;;16.72;28.18
56600;BME280;51832;48.152;11.530;2023-03-16T14:12:19;95536.69;;;17.16;27.81
56600;BME280;51832;48.152;11.530;2023-03-16T14:17:20;95548.84;;;17.80;27.64
56600;BME280;51832;48.152;11.530;2023-03-16T14:22:26;95544.28;;;18.81;26.48
56600;BME280;51832;48.152;11.530;2023-03-16T14:27:43;95544.47;;;19.10;26.24
56600;BME280;51832;48.152;11.530;2023-03-16T14:32:59;95543.78;;;18.54;26.36
56600;BME280;51832;48.152;11.530;2023-03-16T14:43:24;95532.56;;;18.83;26.34
56600;BME280;51832;48.152;11.530;2023-03-16T14:48:27;95530.63;;;19.63;24.77
56600;BME280;51832;48.152;11.530;2023-03-16T14:53:28;95528.03;;;19.92;24.08
56600;BME280;51832;48.152;11.530;2023-03-16T14:58:29;95518.69;;;21.71;22.22
56600;BME280;51832;48.152;11.530;2023-03-16T15:03:32;95533.72;;;23.65;20.01
56600;BME280;51832;48.152;11.530;2023-03-16T15:08:34;95511.28;;;25.87;17.77
56600;BME280;51832;48.152;11.530;2023-03-16T15:13:42;95525.06;;;27.98;16.34
56600;BME280;51832;48.152;11.530;2023-03-16T15:18:43;95512.09;;;29.26;14.51
56600;BME280;51832;48.152;11.530;2023-03-16T15:23:43;95513.63;;;31.00;12.83
56600;BME280;51832;48.152;11.530;2023-03-16T15:28:43;95518.16;;;31.59;12.17
56600;BME280;51832;48.152;11.530;2023-03-16T15:33:44;95518.31;;;32.36;12.13
56600;BME280;51832;48.152;11.530;2023-03-16T15:38:46;95500.63;;;33.60;11.24
56600;BME280;51832;48.152;11.530;2023-03-16T15:43:47;95503.34;;;34.16;10.42
56600;BME280;51832;48.152;11.530;2023-03-16T15:48:48;95490.69;;;35.08;9.65
56600;BME280;51832;48.152;11.530;2023-03-16T15:53:50;95475.53;;;33.50;10.46
56600;BME280;51832;48.152;11.530;2023-03-16T15:58:52;95470.25;;;32.66;11.02
56600;BME280;51832;48.152;11.530;2023-03-16T16:03:53;95459.94;;;31.44;15.49
56600;BME280;51832;48.152;11.530;2023-03-16T16:08:54;95468.47;;;31.77;14.44
56600;BME280;51832;48.152;11.530;2023-03-16T16:13:56;95459.94;;;30.06;13.99
56600;BME280;51832;48.152;11.530;2023-03-16T16:18:57;95459.28;;;27.64;14.80
56600;BME280;51832;48.152;11.530;2023-03-16T16:23:57;95455.00;;;26.66;16.02
56600;BME280;51832;48.152;11.530;2023-03-16T16:28:58;95459.84;;;25.23;16.99
56600;BME280;51832;48.152;11.530;2023-03-16T16:33:58;95468.06;;;24.38;18.29
56600;BME280;51832;48.152;11.530;2023-03-16T16:38:58;95484.06;;;24.21;18.57
56600;BME280;51832;48.152;11.530;2023-03-16T16:43:59;95479.88;;;22.66;20.04
56600;BME280;51832;48.152;11.530;2023-03-16T16:49:33;95478.72;;;22.26;20.59
56600;BME280;51832;48.152;11.530;2023-03-16T16:54:34;95494.34;;;19.96;22.76
56600;BME280;51832;48.152;11.530;2023-03-16T16:59:36;95484.38;;;19.72;23.54
56600;BME280;51832;48.152;11.530;2023-03-16T17:04:37;95488.28;;;19.51;24.06
56600;BME280;51832;48.152;11.530;2023-03-16T17:09:37;95491.78;;;19.36;24.52
56600;BME280;51832;48.152;11.530;2023-03-16T17:14:38;95487.06;;;19.23;25.07
56600;BME280;51832;48.152;11.530;2023-03-16T17:19:38;95492.38;;;18.54;26.33
56600;BME280;51832;48.152;11.530;2023-03-16T17:24:39;95495.84;;;18.34;26.70
56600;BME280;51832;48.152;11.530;2023-03-16T17:29:39;95493.44;;;18.32;26.65
56600;BME280;51832;48.152;11.530;2023-03-16T17:34:41;95502.28;;;17.82;27.72
56600;BME280;51832;48.152;11.530;2023-03-16T17:39:42;95500.41;;;17.98;27.67
56600;BME280;51832;48.152;11.530;2023-03-16T17:44:47;95489.91;;;17.15;29.04
56600;BME280;51832;48.152;11.530;2023-03-16T17:49:49;95488.97;;;16.84;29.61
56600;BME280;51832;48.152;11.530;2023-03-16T17:54:51;95491.41;;;16.91;29.24
56600;BME280;51832;48.152;11.530;2023-03-16T17:59:52;95492.44;;;16.38;30.06
56600;BME280;51832;48.152;11.530;2023-03-16T18:04:52;95490.56;;;16.33;30.64
56600;BME280;51832;48.152;11.530;2023-03-16T18:09:53;95485.72;;;16.25;30.26
56600;BME280;51832;48.152;11.530;2023-03-16T18:14:53;95491.16;;;16.45;30.01
56600;BME280;51832;48.152;11.530;2023-03-16T18:19:57;95484.69;;;16.26;30.43
56600;BME280;51832;48.152;11.530;2023-03-16T18:25:25;95490.53;;;15.91;30.80
56600;BME280;51832;48.152;11.530;2023-03-16T18:30:19;95496.44;;;15.98;30.81
56600;BME280;51832;48.152;11.530;2023-03-16T18:35:20;95494.25;;;15.58;31.56
56600;BME280;51832;48.152;11.530;2023-03-16T18:40:22;95483.63;;;15.58;31.57
56600;BME280;51832;48.152;11.530;2023-03-16T18:45:24;95490.63;;;15.20;32.26
56600;BME280;51832;48.152;11.530;2023-03-16T18:50:26;95477.84;;;15.12;32.59
56600;BME280;51832;48.152;11.530;2023-03-16T18:55:27;95481.53;;;15.38;31.98
56600;BME280;51832;48.152;11.530;2023-03-16T19:00:28;95486.50;;;15.29;32.27
56600;BME280;51832;48.152;11.530;2023-03-16T19:05:33;95480.34;;;15.24;32.29
56600;BME280;51832;48.152;11.530;2023-03-16T19:10:37;95483.31;;;15.27;32.02
56600;BME280;51832;48.152;11.530;2023-03-16T19:15:41;95488.22;;;14.70;33.53
56600;BME280;51832;48.152;11.530;2023-03-16T19:20:43;95479.53;;;14.75;33.19
56600;BME280;51832;48.152;11.530;2023-03-16T19:25:44;95484.94;;;14.41;33.66
56600;BME280;51832;48.152;11.530;2023-03-16T19:30:45;95485.00;;;14.46;33.96
56600;BME280;51832;48.152;11.530;2023-03-16T19:35:46;95476.34;;;14.34;33.97
56600;BME280;51832;48.152;11.530;2023-03-16T19:40:51;95483.16;;;14.30;33.81
56600;BME280;51832;48.152;11.530;2023-03-16T19:45:53;95478.53;;;14.20;34.92
56600;BME280;51832;48.152;11.530;2023-03-16T19:50:55;95481.19;;;14.04;34.74
56600;BME280;51832;48.152;11.530;2023-03-16T19:55:55;95481.25;;;14.09;35.00
56600;BME280;51832;48.152;11.530;2023-03-16T20:00:57;95474.16;;;13.93;35.49
56600;BME280;51832;48.152;11.530;2023-03-16T20:05:57;95475.03;;;13.65;36.38
56600;BME280;51832;48.152;11.530;2023-03-16T20:11:01;95469.72;;;13.48;36.75
56600;BME280;51832;48.152;11.530;2023-03-16T20:16:03;95471.41;;;13.37;37.03
56600;BME280;51832;48.152;11.530;2023-03-16T20:21:04;95464.03;;;13.23;37.15
56600;BME280;51832;48.152;11.530;2023-03-16T20:26:05;95463.03;;;13.00;37.82
56600;BME280;51832;48.152;11.530;2023-03-16T20:31:16;95459.34;;;12.85;38.58
56600;BME280;51832;48.152;11.530;2023-03-16T20:36:19;95455.38;;;12.59;39.12
56600;BME280;51832;48.152;11.530;2023-03-16T20:41:27;95457.91;;;12.54;39.08
56600;BME280;51832;48.152;11.530;2023-03-16T20:46:31;95444.44;;;12.27;39.85
56600;BME280;51832;48.152;11.530;2023-03-16T20:51:31;95445.69;;;12.36;39.85
56600;BME280;51832;48.152;11.530;2023-03-16T20:56:32;95439.75;;;11.94;41.23
56600;BME280;51832;48.152;11.530;2023-03-16T21:01:32;95445.25;;;11.92;40.81
56600;BME280;51832;48.152;11.530;2023-03-16T21:06:33;95444.59;;;11.85;41.49
56600;BME280;51832;48.152;11.530;2023-03-16T21:11:36;95438.72;;;11.71;41.46
56600;BME280;51832;48.152;11.530;2023-03-16T21:16:36;95437.22;;;12.10;41.07
56600;BME280;51832;48.152;11.530;2023-03-16T21:21:38;95436.31;;;11.93;41.65
56600;BME280;51832;48.152;11.530;2023-03-16T21:26:39;95446.03;;;11.69;42.21
56600;BME280;51832;48.152;11.530;2023-03-16T21:31:42;95438.16;;;11.93;41.73
56600;BME280;51832;48.152;11.530;2023-03-16T21:36:42;95440.53;;;11.59;42.37
56600;BME280;51832;48.152;11.530;2023-03-16T21:41:42;95434.56;;;11.64;42.37
56600;BME280;51832;48.152;11.530;2023-03-16T21:46:43;95421.59;;;11.62;42.72
56600;BME280;51832;48.152;11.530;2023-03-16T21:51:45;95409.97;;;11.05;44.00
56600;BME280;51832;48.152;11.530;2023-03-16T21:56:46;95415.88;;;11.30;43.34
56600;BME280;51832;48.152;11.530;2023-03-16T22:01:47;95410.91;;;11.22;43.69
56600;BME280;51832;48.152;11.530;2023-03-16T22:06:47;95412.28;;;11.13;44.01
56600;BME280;51832;48.152;11.530;2023-03-16T22:11:48;95402.72;;;10.89;45.08
56600;BME280;51832;48.152;11.530;2023-03-16T22:16:48;95410.72;;;10.94;45.13
56600;BME280;51832;48.152;11.530;2023-03-16T22:21:49;95410.00;;;10.75;44.99
56600;BME280;51832;48.152;11.530;2023-03-16T22:26:50;95418.88;;;10.44;46.20
56600;BME280;51832;48.152;11.530;2023-03-16T22:32:05;95414.63;;;10.61;46.34
56600;BME280;51832;48.152;11.530;2023-03-16T22:37:08;95413.78;;;10.49;46.31
56600;BME280;51832;48.152;11.530;2023-03-16T22:47:30;95412.22;;;10.42;46.01
56600;BME280;51832;48.152;11.530;2023-03-16T22:52:33;95404.53;;;10.58;46.20
56600;BME280;51832;48.152;11.530;2023-03-16T22:57:36;95405.41;;;10.52;46.79
56600;BME280;51832;48.152;11.530;2023-03-16T23:02:36;95404.94;;;10.44;46.98
56600;BME280;51832;48.152;11.530;2023-03-16T23:07:37;95409.22;;;10.56;46.61
56600;BME280;51832;48.152;11.530;2023-03-16T23:12:38;95401.19;;;10.51;46.96
56600;BME280;51832;48.152;11.530;2023-03-16T23:17:38;95395.47;;;10.24;47.46
56600;BME280;51832;48.152;11.530;2023-03-16T23:22:39;95390.84;;;10.38;47.41
56600;BME280;51832;48.152;11.530;2023-03-16T23:27:40;95385.97;;;10.53;46.48
56600;BME280;51832;48.152;11.530;2023-03-16T23:32:42;95380.97;;;10.33;47.55
56600;BME280;51832;48.152;11.530;2023-03-16T23:37:43;95389.63;;;10.52;47.24
56600;BME280;51832;48.152;11.530;2023-03-16T23:42:44;95376.91;;;10.19;47.88
56600;BME280;51832;48.152;11.530;2023-03-16T23:47:47;95376.72;;;10.14;48.08
56600;BME280;51832;48.152;11.530;2023-03-16T23:52:48;95382.19;;;10.13;48.17
56600;BME280;51832;48.152;11.530;2023-03-16T23:57:49;95365.72;;;10.06;48.34
